PWSweather.com
Personal Weather Stations
Station Observations
KWABLAIN13
Ptl Weather, Blaine, WA

Ptl WeatherBlaine, WA

Lat: 48.997393, Lon: -122.748614

Elevation: 57

Station Type: Davis Advantage Pro 2

http://www.ptlnet.net

High Low Average
Temperature 39.3°F4.1°C 34.7°F1.5°C 36.7°F2.6°C
Dew Point 37.5°F3.1°C 33.4°F0.8°C 35.1°F1.7°C
Winds 13.0 mph 20.9 kmh Calm Calm 4.0 mph ENE6.4 kmh ENE
Wind Gusts 20.0 mph32.2 kmh -- 7.0 mph11.3 kmh
Humidity 95% 92% 94%
Pressure 30.04 in1017.3 mb 29.70 in1005.8 mb -
Precipitation 0.00 in0.0 mm - -
Hour Temp Dew Point Humidity Winds Wind Gusts Pressure Precip Precip Rate Daily Precip Total
12:04 AM 39.1°F3.9°C 37.5°F3.1°C 94% 2.0 mph E3.2 kmh E 3.0 mph4.8 kmh 30.01 in1016.3 mb 0.00 in0.0 mm 0.00 in0.0 mm 0.00 in0.0 mm
12:10 AM 39.0°F3.9°C 37.4°F3.0°C 94% 1.0 mph E1.6 kmh E 3.0 mph4.8 kmh 30.02 in1016.6 mb 0.00 in0.0 mm 0.00 in0.0 mm 0.00 in0.0 mm
12:25 AM 38.9°F3.8°C 37.3°F2.9°C 94% 1.0 mph E1.6 kmh E 2.0 mph3.2 kmh 30.02 in1016.6 mb 0.00 in0.0 mm 0.00 in0.0 mm 0.00 in0.0 mm
12:30 AM 38.9°F3.8°C 37.3°F2.9°C 94% 2.0 mph E3.2 kmh E 3.0 mph4.8 kmh 30.02 in1016.6 mb 0.00 in0.0 mm 0.00 in0.0 mm 0.00 in0.0 mm
12:44 AM 38.8°F3.8°C 37.2°F2.9°C 94% 1.0 mph E1.6 kmh E 3.0 mph4.8 kmh 30.01 in1016.3 mb 0.00 in0.0 mm 0.00 in0.0 mm 0.00 in0.0 mm
12:50 AM 38.8°F3.8°C 37.2°F2.9°C 94% Calm Calm 3.0 mph4.8 kmh 30.01 in1016.3 mb 0.00 in0.0 mm 0.00 in0.0 mm 0.00 in0.0 mm
01:05 AM 38.9°F3.8°C 37.3°F2.9°C 94% 1.0 mph ENE1.6 kmh ENE 2.0 mph3.2 kmh 30.00 in1015.9 mb 0.00 in0.0 mm 0.00 in0.0 mm 0.00 in0.0 mm
01:10 AM 38.9°F3.8°C 37.3°F2.9°C 94% Calm Calm 3.0 mph4.8 kmh 30.00 in1015.9 mb 0.00 in0.0 mm 0.00 in0.0 mm 0.00 in0.0 mm
01:25 AM 38.8°F3.8°C 37.2°F2.9°C 94% Calm Calm 3.0 mph4.8 kmh 29.99 in1015.6 mb 0.00 in0.0 mm 0.00 in0.0 mm 0.00 in0.0 mm
01:30 AM 38.7°F3.7°C 37.1°F2.8°C 94% 1.0 mph NE1.6 kmh NE 4.0 mph6.4 kmh 29.99 in1015.6 mb 0.00 in0.0 mm 0.00 in0.0 mm 0.00 in0.0 mm
01:44 AM 39.0°F3.9°C 37.4°F3.0°C 94% Calm Calm 4.0 mph6.4 kmh 29.99 in1015.6 mb 0.00 in0.0 mm 0.00 in0.0 mm 0.00 in0.0 mm
01:50 AM 39.1°F3.9°C 37.5°F3.1°C 94% 1.0 mph NE1.6 kmh NE 4.0 mph6.4 kmh 29.99 in1015.6 mb 0.00 in0.0 mm 0.00 in0.0 mm 0.00 in0.0 mm
02:05 AM 39.2°F4.0°C 37.4°F3.0°C 93% 1.0 mph ENE1.6 kmh ENE 3.0 mph4.8 kmh 29.99 in1015.6 mb 0.00 in0.0 mm 0.00 in0.0 mm 0.00 in0.0 mm
02:10 AM 39.2°F4.0°C 37.4°F3.0°C 93% 1.0 mph E1.6 kmh E 2.0 mph3.2 kmh 29.99 in1015.6 mb 0.00 in0.0 mm 0.00 in0.0 mm 0.00 in0.0 mm
02:25 AM 39.1°F3.9°C 37.3°F2.9°C 93% 3.0 mph E4.8 kmh E 3.0 mph4.8 kmh 29.99 in1015.6 mb 0.00 in0.0 mm 0.00 in0.0 mm 0.00 in0.0 mm
02:29 AM 39.2°F4.0°C 37.4°F3.0°C 93% Calm Calm 3.0 mph4.8 kmh 29.99 in1015.6 mb 0.00 in0.0 mm 0.00 in0.0 mm 0.00 in0.0 mm
02:45 AM 39.2°F4.0°C 37.4°F3.0°C 93% 3.0 mph NE4.8 kmh NE 4.0 mph6.4 kmh 29.99 in1015.6 mb 0.00 in0.0 mm 0.00 in0.0 mm 0.00 in0.0 mm
02:50 AM 39.3°F4.1°C 37.2°F2.9°C 92% 3.0 mph NE4.8 kmh NE 4.0 mph6.4 kmh 29.99 in1015.6 mb 0.01 in0.3 mm 0.12 in3.0 mm 0.01 in0.3 mm
03:05 AM 39.3°F4.1°C 37.2°F2.9°C 92% Calm Calm 6.0 mph9.7 kmh 29.99 in1015.6 mb 0.01 in0.3 mm 0.00 in0.0 mm 0.01 in0.3 mm
03:10 AM 39.3°F4.1°C 37.2°F2.9°C 92% Calm Calm -- 29.99 in1015.6 mb 0.01 in0.3 mm 0.00 in0.0 mm 0.01 in0.3 mm
03:25 AM 39.2°F4.0°C 37.4°F3.0°C 93% 1.0 mph NE1.6 kmh NE 3.0 mph4.8 kmh 29.99 in1015.6 mb 0.01 in0.3 mm 0.00 in0.0 mm 0.01 in0.3 mm
03:29 AM 39.2°F4.0°C 37.4°F3.0°C 93% Calm Calm 3.0 mph4.8 kmh 29.99 in1015.6 mb 0.01 in0.3 mm 0.00 in0.0 mm 0.01 in0.3 mm
03:45 AM 39.1°F3.9°C 37.3°F2.9°C 93% 4.0 mph E6.4 kmh E 7.0 mph11.3 kmh 29.98 in1015.2 mb 0.01 in0.3 mm 0.00 in0.0 mm 0.01 in0.3 mm
03:50 AM 39.2°F4.0°C 37.1°F2.8°C 92% 4.0 mph E6.4 kmh E 7.0 mph11.3 kmh 29.98 in1015.2 mb 0.02 in0.5 mm 0.12 in3.0 mm 0.02 in0.5 mm
04:05 AM 39.3°F4.1°C 37.2°F2.9°C 92% 4.0 mph ESE6.4 kmh ESE 6.0 mph9.7 kmh 29.97 in1014.9 mb 0.01 in0.3 mm 0.00 in0.0 mm 0.02 in0.5 mm
04:10 AM 39.3°F4.1°C 37.2°F2.9°C 92% 3.0 mph ESE4.8 kmh ESE 6.0 mph9.7 kmh 29.97 in1014.9 mb 0.01 in0.3 mm 0.00 in0.0 mm 0.02 in0.5 mm
04:25 AM 38.9°F3.8°C 36.8°F2.7°C 92% 3.0 mph ESE4.8 kmh ESE 5.0 mph8.0 kmh 29.97 in1014.9 mb 0.02 in0.5 mm 0.04 in1.0 mm 0.03 in0.8 mm
04:30 AM 38.8°F3.8°C 37.0°F2.8°C 93% 3.0 mph ESE4.8 kmh ESE 5.0 mph8.0 kmh 29.96 in1014.6 mb 0.02 in0.5 mm 0.00 in0.0 mm 0.03 in0.8 mm
04:44 AM 38.5°F3.6°C 36.7°F2.6°C 93% 3.0 mph ENE4.8 kmh ENE 7.0 mph11.3 kmh 29.95 in1014.2 mb 0.02 in0.5 mm 0.00 in0.0 mm 0.03 in0.8 mm
04:50 AM 38.4°F3.6°C 36.6°F2.6°C 93% 3.0 mph ESE4.8 kmh ESE 7.0 mph11.3 kmh 29.94 in1013.9 mb 0.02 in0.5 mm 0.00 in0.0 mm 0.03 in0.8 mm
05:05 AM 38.1°F3.4°C 36.0°F2.2°C 92% 5.0 mph ENE8.0 kmh ENE 7.0 mph11.3 kmh 29.94 in1013.9 mb 0.01 in0.3 mm 0.00 in0.0 mm 0.03 in0.8 mm
05:10 AM 38.0°F3.3°C 35.9°F2.2°C 92% 3.0 mph ENE4.8 kmh ENE 7.0 mph11.3 kmh 29.94 in1013.9 mb 0.01 in0.3 mm 0.00 in0.0 mm 0.03 in0.8 mm
05:25 AM 37.5°F3.1°C 35.7°F2.1°C 93% 1.0 mph N1.6 kmh N 6.0 mph9.7 kmh 29.93 in1013.5 mb 0.02 in0.5 mm 0.04 in1.0 mm 0.04 in1.0 mm
05:30 AM 37.4°F3.0°C 35.6°F2.0°C 93% 3.0 mph NE4.8 kmh NE 7.0 mph11.3 kmh 29.93 in1013.5 mb 0.03 in0.8 mm 0.12 in3.0 mm 0.05 in1.3 mm
05:45 AM 37.3°F2.9°C 35.7°F2.1°C 94% Calm Calm 5.0 mph8.0 kmh 29.92 in1013.2 mb 0.02 in0.5 mm 0.00 in0.0 mm 0.05 in1.3 mm
05:49 AM 37.2°F2.9°C 35.6°F2.0°C 94% 3.0 mph NE4.8 kmh NE 7.0 mph11.3 kmh 29.92 in1013.2 mb 0.02 in0.5 mm 0.00 in0.0 mm 0.05 in1.3 mm
06:05 AM 37.1°F2.8°C 35.5°F1.9°C 94% 7.0 mph ENE11.3 kmh ENE 10.0 mph16.1 kmh 29.91 in1012.9 mb 0.02 in0.5 mm 0.00 in0.0 mm 0.05 in1.3 mm
06:10 AM 37.1°F2.8°C 35.5°F1.9°C 94% 5.0 mph E8.0 kmh E 10.0 mph16.1 kmh 29.91 in1012.9 mb 0.03 in0.8 mm 0.12 in3.0 mm 0.06 in1.5 mm
06:25 AM 37.1°F2.8°C 35.5°F1.9°C 94% 6.0 mph E9.7 kmh E 11.0 mph17.7 kmh 29.91 in1012.9 mb 0.02 in0.5 mm 0.00 in0.0 mm 0.06 in1.5 mm
06:29 AM 37.3°F2.9°C 35.7°F2.1°C 94% 10.0 mph NE16.1 kmh NE 11.0 mph17.7 kmh 29.90 in1012.5 mb 0.02 in0.5 mm 0.00 in0.0 mm 0.06 in1.5 mm
06:44 AM 37.5°F3.1°C 35.7°F2.1°C 93% 6.0 mph ENE9.7 kmh ENE 11.0 mph17.7 kmh 29.89 in1012.2 mb 0.02 in0.5 mm 0.00 in0.0 mm 0.06 in1.5 mm
06:49 AM 37.4°F3.0°C 35.6°F2.0°C 93% 4.0 mph ENE6.4 kmh ENE 12.0 mph19.3 kmh 29.89 in1012.2 mb 0.02 in0.5 mm 0.00 in0.0 mm 0.06 in1.5 mm
07:05 AM 37.3°F2.9°C 35.5°F1.9°C 93% 11.0 mph NE17.7 kmh NE 14.0 mph22.5 kmh 29.88 in1011.9 mb 0.02 in0.5 mm 0.00 in0.0 mm 0.06 in1.5 mm
07:10 AM 37.3°F2.9°C 35.5°F1.9°C 93% 13.0 mph E20.9 kmh E 14.0 mph22.5 kmh 29.88 in1011.9 mb 0.02 in0.5 mm 0.00 in0.0 mm 0.06 in1.5 mm
07:25 AM 37.2°F2.9°C 35.4°F1.9°C 93% 8.0 mph E12.9 kmh E 14.0 mph22.5 kmh 29.88 in1011.9 mb 0.02 in0.5 mm 0.00 in0.0 mm 0.06 in1.5 mm
07:30 AM 37.1°F2.8°C 35.3°F1.8°C 93% 8.0 mph ENE12.9 kmh ENE 14.0 mph22.5 kmh 29.87 in1011.5 mb 0.02 in0.5 mm 0.00 in0.0 mm 0.06 in1.5 mm
07:45 AM 36.9°F2.7°C 35.1°F1.7°C 93% 4.0 mph NE6.4 kmh NE 12.0 mph19.3 kmh 29.86 in1011.2 mb 0.02 in0.5 mm 0.00 in0.0 mm 0.06 in1.5 mm
07:50 AM 36.9°F2.7°C 35.1°F1.7°C 93% 5.0 mph N8.0 kmh N 17.0 mph27.4 kmh 29.86 in1011.2 mb 0.03 in0.8 mm 0.12 in3.0 mm 0.07 in1.8 mm
08:05 AM 36.7°F2.6°C 34.9°F1.6°C 93% 7.0 mph NE11.3 kmh NE 19.0 mph30.6 kmh 29.85 in1010.8 mb 0.03 in0.8 mm 0.00 in0.0 mm 0.07 in1.8 mm
08:10 AM 36.6°F2.6°C 34.8°F1.6°C 93% 6.0 mph NE9.7 kmh NE 19.0 mph30.6 kmh 29.85 in1010.8 mb 0.04 in1.0 mm 0.12 in3.0 mm 0.08 in2.0 mm
08:25 AM 36.5°F2.5°C 34.7°F1.5°C 93% 11.0 mph NNE17.7 kmh NNE 17.0 mph27.4 kmh 29.84 in1010.5 mb 0.04 in1.0 mm 0.00 in0.0 mm 0.08 in2.0 mm
08:30 AM 36.4°F2.4°C 34.6°F1.4°C 93% 5.0 mph NNE8.0 kmh NNE 17.0 mph27.4 kmh 29.84 in1010.5 mb 0.05 in1.3 mm 0.12 in3.0 mm 0.09 in2.3 mm
08:45 AM 36.3°F2.4°C 34.5°F1.4°C 93% 8.0 mph ENE12.9 kmh ENE 12.0 mph19.3 kmh 29.83 in1010.2 mb 0.04 in1.0 mm 0.00 in0.0 mm 0.09 in2.3 mm
08:50 AM 36.3°F2.4°C 34.5°F1.4°C 93% 6.0 mph ENE9.7 kmh ENE 20.0 mph32.2 kmh 29.83 in1010.2 mb 0.04 in1.0 mm 0.00 in0.0 mm 0.09 in2.3 mm
09:05 AM 36.2°F2.3°C 34.6°F1.4°C 94% 3.0 mph NE4.8 kmh NE 13.0 mph20.9 kmh 29.83 in1010.2 mb 0.04 in1.0 mm 0.00 in0.0 mm 0.09 in2.3 mm
09:10 AM 36.2°F2.3°C 34.6°F1.4°C 94% 9.0 mph NE14.5 kmh NE 14.0 mph22.5 kmh 29.83 in1010.2 mb 0.04 in1.0 mm 0.00 in0.0 mm 0.09 in2.3 mm
09:25 AM 36.2°F2.3°C 34.6°F1.4°C 94% 5.0 mph NE8.0 kmh NE 13.0 mph20.9 kmh 29.82 in1009.8 mb 0.04 in1.0 mm 0.00 in0.0 mm 0.09 in2.3 mm
09:30 AM 36.2°F2.3°C 34.6°F1.4°C 94% 13.0 mph NE20.9 kmh NE 15.0 mph24.1 kmh 29.82 in1009.8 mb 0.05 in1.3 mm 0.12 in3.0 mm 0.10 in2.5 mm
09:45 AM 36.3°F2.4°C 34.7°F1.5°C 94% 7.0 mph NE11.3 kmh NE 11.0 mph17.7 kmh 29.81 in1009.5 mb 0.05 in1.3 mm 0.00 in0.0 mm 0.10 in2.5 mm
09:50 AM 36.3°F2.4°C 34.7°F1.5°C 94% 6.0 mph ENE9.7 kmh ENE 11.0 mph17.7 kmh 29.81 in1009.5 mb 0.05 in1.3 mm 0.00 in0.0 mm 0.10 in2.5 mm
10:05 AM 36.3°F2.4°C 34.7°F1.5°C 94% 4.0 mph NE6.4 kmh NE 9.0 mph14.5 kmh 29.81 in1009.5 mb 0.04 in1.0 mm 0.00 in0.0 mm 0.10 in2.5 mm
10:10 AM 36.3°F2.4°C 34.7°F1.5°C 94% 6.0 mph ENE9.7 kmh ENE 13.0 mph20.9 kmh 29.81 in1009.5 mb 0.05 in1.3 mm 0.12 in3.0 mm 0.11 in2.8 mm
10:25 AM 36.3°F2.4°C 34.7°F1.5°C 94% 11.0 mph E17.7 kmh E 12.0 mph19.3 kmh 29.81 in1009.5 mb 0.05 in1.3 mm 0.00 in0.0 mm 0.11 in2.8 mm
10:29 AM 36.4°F2.4°C 34.8°F1.6°C 94% 6.0 mph ENE9.7 kmh ENE 12.0 mph19.3 kmh 29.80 in1009.1 mb 0.05 in1.3 mm 0.00 in0.0 mm 0.11 in2.8 mm
10:45 AM 36.2°F2.3°C 34.6°F1.4°C 94% 7.0 mph E11.3 kmh E 11.0 mph17.7 kmh 29.79 in1008.8 mb 0.04 in1.0 mm 0.00 in0.0 mm 0.11 in2.8 mm
10:50 AM 36.2°F2.3°C 34.6°F1.4°C 94% 9.0 mph NE14.5 kmh NE 12.0 mph19.3 kmh 29.79 in1008.8 mb 0.04 in1.0 mm 0.00 in0.0 mm 0.11 in2.8 mm
11:05 AM 36.2°F2.3°C 34.6°F1.4°C 94% 4.0 mph NE6.4 kmh NE 10.0 mph16.1 kmh 29.77 in1008.1 mb 0.04 in1.0 mm 0.00 in0.0 mm 0.11 in2.8 mm
11:09 AM 36.2°F2.3°C 34.6°F1.4°C 94% 8.0 mph NE12.9 kmh NE 11.0 mph17.7 kmh 29.77 in1008.1 mb 0.04 in1.0 mm 0.00 in0.0 mm 0.11 in2.8 mm
11:25 AM 36.2°F2.3°C 34.6°F1.4°C 94% 4.0 mph ENE6.4 kmh ENE 12.0 mph19.3 kmh 29.75 in1007.5 mb 0.04 in1.0 mm 0.00 in0.0 mm 0.11 in2.8 mm
11:29 AM 36.2°F2.3°C 34.6°F1.4°C 94% 12.0 mph NE19.3 kmh NE 12.0 mph19.3 kmh 29.75 in1007.5 mb 0.04 in1.0 mm 0.00 in0.0 mm 0.11 in2.8 mm
11:45 AM 36.3°F2.4°C 34.7°F1.5°C 94% 6.0 mph NE9.7 kmh NE 8.0 mph12.9 kmh 29.74 in1007.1 mb 0.02 in0.5 mm 0.00 in0.0 mm 0.11 in2.8 mm
11:50 AM 36.4°F2.4°C 34.8°F1.6°C 94% 4.0 mph E6.4 kmh E 8.0 mph12.9 kmh 29.74 in1007.1 mb 0.02 in0.5 mm 0.00 in0.0 mm 0.11 in2.8 mm
12:04 PM 36.5°F2.5°C 34.9°F1.6°C 94% 1.0 mph NE1.6 kmh NE 7.0 mph11.3 kmh 29.73 in1006.8 mb 0.02 in0.5 mm 0.00 in0.0 mm 0.11 in2.8 mm
12:10 PM 36.5°F2.5°C 34.9°F1.6°C 94% 3.0 mph NE4.8 kmh NE 3.0 mph4.8 kmh 29.73 in1006.8 mb 0.02 in0.5 mm 0.00 in0.0 mm 0.11 in2.8 mm
12:25 PM 36.7°F2.6°C 35.4°F1.9°C 95% 2.0 mph E3.2 kmh E 6.0 mph9.7 kmh 29.73 in1006.8 mb 0.03 in0.8 mm 0.04 in1.0 mm 0.12 in3.0 mm
12:30 PM 36.7°F2.6°C 35.4°F1.9°C 95% 3.0 mph ENE4.8 kmh ENE 6.0 mph9.7 kmh 29.72 in1006.4 mb 0.03 in0.8 mm 0.00 in0.0 mm 0.12 in3.0 mm
12:45 PM 36.6°F2.6°C 35.0°F1.7°C 94% 2.0 mph ENE3.2 kmh ENE 6.0 mph9.7 kmh 29.71 in1006.1 mb 0.02 in0.5 mm 0.00 in0.0 mm 0.12 in3.0 mm
12:50 PM 36.6°F2.6°C 35.0°F1.7°C 94% 3.0 mph ENE4.8 kmh ENE 3.0 mph4.8 kmh 29.71 in1006.1 mb 0.02 in0.5 mm 0.00 in0.0 mm 0.12 in3.0 mm
01:05 PM 36.6°F2.6°C 35.0°F1.7°C 94% 4.0 mph E6.4 kmh E 8.0 mph12.9 kmh 29.70 in1005.8 mb 0.03 in0.8 mm 0.01 in0.3 mm 0.13 in3.3 mm
01:10 PM 36.7°F2.6°C 35.1°F1.7°C 94% 5.0 mph E8.0 kmh E 12.0 mph19.3 kmh 29.70 in1005.8 mb 0.03 in0.8 mm 0.00 in0.0 mm 0.13 in3.3 mm
01:25 PM 36.8°F2.7°C 35.2°F1.8°C 94% 3.0 mph NE4.8 kmh NE 9.0 mph14.5 kmh 29.71 in1006.1 mb 0.02 in0.5 mm 0.00 in0.0 mm 0.13 in3.3 mm
01:30 PM 36.8°F2.7°C 35.2°F1.8°C 94% 5.0 mph E8.0 kmh E 9.0 mph14.5 kmh 29.71 in1006.1 mb 0.03 in0.8 mm 0.12 in3.0 mm 0.14 in3.6 mm
01:44 PM 36.9°F2.7°C 35.3°F1.8°C 94% 2.0 mph ENE3.2 kmh ENE 6.0 mph9.7 kmh 29.71 in1006.1 mb 0.02 in0.5 mm 0.00 in0.0 mm 0.14 in3.6 mm
01:50 PM 36.9°F2.7°C 35.3°F1.8°C 94% 2.0 mph E3.2 kmh E 8.0 mph12.9 kmh 29.71 in1006.1 mb 0.02 in0.5 mm 0.00 in0.0 mm 0.14 in3.6 mm
02:05 PM 36.8°F2.7°C 35.2°F1.8°C 94% 2.0 mph ENE3.2 kmh ENE 9.0 mph14.5 kmh 29.71 in1006.1 mb 0.03 in0.8 mm 0.01 in0.3 mm 0.15 in3.8 mm
02:10 PM 36.8°F2.7°C 35.2°F1.8°C 94% 4.0 mph E6.4 kmh E 5.0 mph8.0 kmh 29.71 in1006.1 mb 0.03 in0.8 mm 0.00 in0.0 mm 0.15 in3.8 mm
02:24 PM 36.6°F2.6°C 35.0°F1.7°C 94% 7.0 mph ENE11.3 kmh ENE 7.0 mph11.3 kmh 29.72 in1006.4 mb 0.05 in1.3 mm 0.09 in2.3 mm 0.17 in4.3 mm
02:29 PM 36.6°F2.6°C 35.0°F1.7°C 94% 2.0 mph NE3.2 kmh NE 10.0 mph16.1 kmh 29.72 in1006.4 mb 0.05 in1.3 mm 0.00 in0.0 mm 0.17 in4.3 mm
02:45 PM 36.5°F2.5°C 34.9°F1.6°C 94% 4.0 mph E6.4 kmh E 10.0 mph16.1 kmh 29.71 in1006.1 mb 0.06 in1.5 mm 0.04 in1.0 mm 0.18 in4.6 mm
02:50 PM 36.4°F2.4°C 34.8°F1.6°C 94% 3.0 mph NE4.8 kmh NE 10.0 mph16.1 kmh 29.71 in1006.1 mb 0.07 in1.8 mm 0.12 in3.0 mm 0.19 in4.8 mm
03:05 PM 36.2°F2.3°C 34.6°F1.4°C 94% 6.0 mph NE9.7 kmh NE 11.0 mph17.7 kmh 29.71 in1006.1 mb 0.07 in1.8 mm 0.00 in0.0 mm 0.19 in4.8 mm
03:10 PM 36.3°F2.4°C 34.7°F1.5°C 94% 7.0 mph NE11.3 kmh NE 11.0 mph17.7 kmh 29.72 in1006.4 mb 0.08 in2.0 mm 0.12 in3.0 mm 0.20 in5.1 mm
03:25 PM 36.3°F2.4°C 34.7°F1.5°C 94% 4.0 mph NE6.4 kmh NE 13.0 mph20.9 kmh 29.73 in1006.8 mb 0.08 in2.0 mm 0.00 in0.0 mm 0.20 in5.1 mm
03:30 PM 36.3°F2.4°C 34.7°F1.5°C 94% 2.0 mph NE3.2 kmh NE 13.0 mph20.9 kmh 29.74 in1007.1 mb 0.08 in2.0 mm 0.00 in0.0 mm 0.20 in5.1 mm
03:45 PM 36.3°F2.4°C 34.7°F1.5°C 94% 2.0 mph ENE3.2 kmh ENE 5.0 mph8.0 kmh 29.75 in1007.5 mb 0.08 in2.0 mm 0.00 in0.0 mm 0.20 in5.1 mm
03:50 PM 36.2°F2.3°C 34.6°F1.4°C 94% 6.0 mph E9.7 kmh E 6.0 mph9.7 kmh 29.75 in1007.5 mb 0.09 in2.3 mm 0.12 in3.0 mm 0.21 in5.3 mm
04:05 PM 36.2°F2.3°C 34.9°F1.6°C 95% 3.0 mph E4.8 kmh E 7.0 mph11.3 kmh 29.76 in1007.8 mb 0.08 in2.0 mm 0.00 in0.0 mm 0.21 in5.3 mm
04:09 PM 36.1°F2.3°C 34.8°F1.6°C 95% 2.0 mph ENE3.2 kmh ENE 8.0 mph12.9 kmh 29.76 in1007.8 mb 0.09 in2.3 mm 0.15 in3.8 mm 0.22 in5.6 mm
04:25 PM 35.9°F2.2°C 34.6°F1.4°C 95% 4.0 mph E6.4 kmh E 6.0 mph9.7 kmh 29.77 in1008.1 mb 0.08 in2.0 mm 0.00 in0.0 mm 0.22 in5.6 mm
04:30 PM 35.8°F2.1°C 34.3°F1.3°C 94% 2.0 mph ENE3.2 kmh ENE 8.0 mph12.9 kmh 29.77 in1008.1 mb 0.09 in2.3 mm 0.12 in3.0 mm 0.23 in5.8 mm
04:45 PM 35.7°F2.1°C 34.4°F1.3°C 95% 3.0 mph NE4.8 kmh NE 5.0 mph8.0 kmh 29.79 in1008.8 mb 0.06 in1.5 mm 0.00 in0.0 mm 0.23 in5.8 mm
04:50 PM 35.6°F2.0°C 34.3°F1.3°C 95% 5.0 mph NE8.0 kmh NE 6.0 mph9.7 kmh 29.80 in1009.1 mb 0.06 in1.5 mm 0.00 in0.0 mm 0.23 in5.8 mm
05:05 PM 35.5°F1.9°C 34.2°F1.2°C 95% 1.0 mph NE1.6 kmh NE 6.0 mph9.7 kmh 29.81 in1009.5 mb 0.07 in1.8 mm 0.01 in0.3 mm 0.24 in6.1 mm
05:10 PM 35.5°F1.9°C 34.2°F1.2°C 95% 3.0 mph E4.8 kmh E 3.0 mph4.8 kmh 29.81 in1009.5 mb 0.06 in1.5 mm 0.00 in0.0 mm 0.24 in6.1 mm
05:24 PM 35.4°F1.9°C 34.1°F1.2°C 95% 1.0 mph E1.6 kmh E 6.0 mph9.7 kmh 29.82 in1009.8 mb 0.06 in1.5 mm 0.00 in0.0 mm 0.24 in6.1 mm
05:29 PM 35.4°F1.9°C 34.1°F1.2°C 95% 8.0 mph ENE12.9 kmh ENE 8.0 mph12.9 kmh 29.82 in1009.8 mb 0.06 in1.5 mm 0.00 in0.0 mm 0.24 in6.1 mm
05:45 PM 35.4°F1.9°C 34.1°F1.2°C 95% 2.0 mph NE3.2 kmh NE 5.0 mph8.0 kmh 29.83 in1010.2 mb 0.05 in1.3 mm 0.00 in0.0 mm 0.24 in6.1 mm
05:50 PM 35.4°F1.9°C 34.1°F1.2°C 95% 2.0 mph ENE3.2 kmh ENE 2.0 mph3.2 kmh 29.83 in1010.2 mb 0.04 in1.0 mm 0.00 in0.0 mm 0.24 in6.1 mm
06:04 PM 35.4°F1.9°C 34.1°F1.2°C 95% 2.0 mph NE3.2 kmh NE 6.0 mph9.7 kmh 29.83 in1010.2 mb 0.04 in1.0 mm 0.00 in0.0 mm 0.24 in6.1 mm
06:10 PM 35.4°F1.9°C 34.1°F1.2°C 95% Calm Calm 7.0 mph11.3 kmh 29.84 in1010.5 mb 0.04 in1.0 mm 0.00 in0.0 mm 0.24 in6.1 mm
06:25 PM 35.3°F1.8°C 34.0°F1.1°C 95% 2.0 mph E3.2 kmh E 5.0 mph8.0 kmh 29.85 in1010.8 mb 0.03 in0.8 mm 0.00 in0.0 mm 0.24 in6.1 mm
06:30 PM 35.3°F1.8°C 34.0°F1.1°C 95% 3.0 mph NE4.8 kmh NE 5.0 mph8.0 kmh 29.85 in1010.8 mb 0.03 in0.8 mm 0.00 in0.0 mm 0.24 in6.1 mm
06:45 PM 35.1°F1.7°C 33.8°F1.0°C 95% 6.0 mph NE9.7 kmh NE 6.0 mph9.7 kmh 29.86 in1011.2 mb 0.03 in0.8 mm 0.00 in0.0 mm 0.24 in6.1 mm
06:50 PM 35.1°F1.7°C 33.8°F1.0°C 95% 3.0 mph ENE4.8 kmh ENE 6.0 mph9.7 kmh 29.87 in1011.5 mb 0.03 in0.8 mm 0.00 in0.0 mm 0.24 in6.1 mm
07:05 PM 35.0°F1.7°C 33.7°F0.9°C 95% 2.0 mph NE3.2 kmh NE 4.0 mph6.4 kmh 29.88 in1011.9 mb 0.03 in0.8 mm 0.00 in0.0 mm 0.24 in6.1 mm
07:10 PM 35.0°F1.7°C 33.7°F0.9°C 95% 1.0 mph NE1.6 kmh NE 4.0 mph6.4 kmh 29.88 in1011.9 mb 0.03 in0.8 mm 0.00 in0.0 mm 0.24 in6.1 mm
07:25 PM 35.0°F1.7°C 33.7°F0.9°C 95% 3.0 mph NE4.8 kmh NE 6.0 mph9.7 kmh 29.89 in1012.2 mb 0.04 in1.0 mm 0.04 in1.0 mm 0.25 in6.4 mm
07:30 PM 35.0°F1.7°C 33.7°F0.9°C 95% 1.0 mph ENE1.6 kmh ENE 6.0 mph9.7 kmh 29.89 in1012.2 mb 0.04 in1.0 mm 0.00 in0.0 mm 0.25 in6.4 mm
07:45 PM 35.0°F1.7°C 33.7°F0.9°C 95% 7.0 mph NNE11.3 kmh NNE 7.0 mph11.3 kmh 29.91 in1012.9 mb 0.04 in1.0 mm 0.00 in0.0 mm 0.25 in6.4 mm
07:50 PM 35.0°F1.7°C 33.7°F0.9°C 95% 2.0 mph NE3.2 kmh NE 7.0 mph11.3 kmh 29.91 in1012.9 mb 0.04 in1.0 mm 0.00 in0.0 mm 0.25 in6.4 mm
08:05 PM 34.9°F1.6°C 33.6°F0.9°C 95% 3.0 mph NE4.8 kmh NE 5.0 mph8.0 kmh 29.91 in1012.9 mb 0.05 in1.3 mm 0.01 in0.3 mm 0.26 in6.6 mm
08:10 PM 34.9°F1.6°C 33.6°F0.9°C 95% 1.0 mph ENE1.6 kmh ENE 5.0 mph8.0 kmh 29.91 in1012.9 mb 0.06 in1.5 mm 0.12 in3.0 mm 0.27 in6.9 mm
08:25 PM 34.8°F1.6°C 33.5°F0.8°C 95% 4.0 mph E6.4 kmh E 6.0 mph9.7 kmh 29.92 in1013.2 mb 0.04 in1.0 mm 0.00 in0.0 mm 0.27 in6.9 mm
08:29 PM 34.8°F1.6°C 33.5°F0.8°C 95% 2.0 mph NE3.2 kmh NE 7.0 mph11.3 kmh 29.92 in1013.2 mb 0.05 in1.3 mm 0.15 in3.8 mm 0.28 in7.1 mm
08:45 PM 34.7°F1.5°C 33.4°F0.8°C 95% 1.0 mph NE1.6 kmh NE 5.0 mph8.0 kmh 29.92 in1013.2 mb 0.04 in1.0 mm 0.00 in0.0 mm 0.28 in7.1 mm
08:50 PM 34.7°F1.5°C 33.4°F0.8°C 95% Calm Calm 1.0 mph1.6 kmh 29.93 in1013.5 mb 0.04 in1.0 mm 0.00 in0.0 mm 0.28 in7.1 mm
09:05 PM 34.7°F1.5°C 33.4°F0.8°C 95% 1.0 mph ENE1.6 kmh ENE 3.0 mph4.8 kmh 29.94 in1013.9 mb 0.05 in1.3 mm 0.01 in0.3 mm 0.29 in7.4 mm
09:10 PM 34.8°F1.6°C 33.5°F0.8°C 95% 1.0 mph ENE1.6 kmh ENE 1.0 mph1.6 kmh 29.94 in1013.9 mb 0.04 in1.0 mm 0.00 in0.0 mm 0.29 in7.4 mm
09:25 PM 34.8°F1.6°C 33.5°F0.8°C 95% 2.0 mph NE3.2 kmh NE 5.0 mph8.0 kmh 29.95 in1014.2 mb 0.06 in1.5 mm 0.08 in2.0 mm 0.31 in7.9 mm
09:29 PM 34.8°F1.6°C 33.5°F0.8°C 95% Calm Calm 5.0 mph8.0 kmh 29.96 in1014.6 mb 0.06 in1.5 mm 0.00 in0.0 mm 0.31 in7.9 mm
09:45 PM 34.9°F1.6°C 33.6°F0.9°C 95% 4.0 mph ENE6.4 kmh ENE 4.0 mph6.4 kmh 29.96 in1014.6 mb 0.06 in1.5 mm 0.00 in0.0 mm 0.31 in7.9 mm
09:50 PM 35.0°F1.7°C 33.7°F0.9°C 95% 2.0 mph ENE3.2 kmh ENE 7.0 mph11.3 kmh 29.96 in1014.6 mb 0.06 in1.5 mm 0.00 in0.0 mm 0.31 in7.9 mm
10:05 PM 35.0°F1.7°C 33.7°F0.9°C 95% 2.0 mph ENE3.2 kmh ENE 3.0 mph4.8 kmh 29.98 in1015.2 mb 0.07 in1.8 mm 0.01 in0.3 mm 0.32 in8.1 mm
10:10 PM 35.0°F1.7°C 33.7°F0.9°C 95% Calm Calm 4.0 mph6.4 kmh 29.99 in1015.6 mb 0.07 in1.8 mm 0.00 in0.0 mm 0.32 in8.1 mm
10:25 PM 35.1°F1.7°C 33.8°F1.0°C 95% 2.0 mph ENE3.2 kmh ENE 5.0 mph8.0 kmh 30.00 in1015.9 mb 0.07 in1.8 mm 0.00 in0.0 mm 0.32 in8.1 mm
10:30 PM 35.1°F1.7°C 33.8°F1.0°C 95% Calm Calm 5.0 mph8.0 kmh 30.00 in1015.9 mb 0.07 in1.8 mm 0.00 in0.0 mm 0.32 in8.1 mm
10:45 PM 35.2°F1.8°C 33.9°F1.1°C 95% 2.0 mph E3.2 kmh E 8.0 mph12.9 kmh 30.01 in1016.3 mb 0.07 in1.8 mm 0.00 in0.0 mm 0.32 in8.1 mm
10:50 PM 35.2°F1.8°C 33.9°F1.1°C 95% 2.0 mph NE3.2 kmh NE 8.0 mph12.9 kmh 30.01 in1016.3 mb 0.08 in2.0 mm 0.12 in3.0 mm 0.33 in8.4 mm
11:05 PM 35.1°F1.7°C 33.8°F1.0°C 95% 1.0 mph E1.6 kmh E 5.0 mph8.0 kmh 30.02 in1016.6 mb 0.07 in1.8 mm 0.00 in0.0 mm 0.33 in8.4 mm
11:09 PM 35.1°F1.7°C 33.8°F1.0°C 95% 1.0 mph NE1.6 kmh NE 5.0 mph8.0 kmh 30.02 in1016.6 mb 0.08 in2.0 mm 0.15 in3.8 mm 0.34 in8.6 mm
11:25 PM 35.2°F1.8°C 33.9°F1.1°C 95% 1.0 mph NE1.6 kmh NE 5.0 mph8.0 kmh 30.03 in1016.9 mb 0.07 in1.8 mm 0.00 in0.0 mm 0.34 in8.6 mm
11:30 PM 35.2°F1.8°C 33.9°F1.1°C 95% 3.0 mph NE4.8 kmh NE 7.0 mph11.3 kmh 30.03 in1016.9 mb 0.07 in1.8 mm 0.00 in0.0 mm 0.34 in8.6 mm
11:45 PM 35.2°F1.8°C 33.9°F1.1°C 95% 3.0 mph E4.8 kmh E 7.0 mph11.3 kmh 30.04 in1017.3 mb 0.04 in1.0 mm 0.00 in0.0 mm 0.34 in8.6 mm
11:50 PM 35.2°F1.8°C 33.9°F1.1°C 95% 2.0 mph NE3.2 kmh NE 2.0 mph3.2 kmh 30.04 in1017.3 mb 0.03 in0.8 mm 0.00 in0.0 mm 0.34 in8.6 mm